createdAt,value
2023-03-26T00:02:34.061Z,45.17
2023-03-26T00:05:20.198Z,45.45
2023-03-26T00:08:08.898Z,45.47
2023-03-26T00:10:54.819Z,45.66
2023-03-26T00:13:43.889Z,45.35
2023-03-26T00:16:31.356Z,45.86
2023-03-26T00:19:17.316Z,45.68
2023-03-26T00:22:03.876Z,45.38
2023-03-26T00:24:51.316Z,45.51
2023-03-26T00:27:38.168Z,45.88
2023-03-26T00:30:24.003Z,46.01
2023-03-26T00:33:11.959Z,45.69
2023-03-26T00:36:02.457Z,46.16
2023-03-26T00:38:49.968Z,46.11
2023-03-26T00:41:37.187Z,46.03
2023-03-26T00:44:23.627Z,46.04
2023-03-26T00:47:09.070Z,46.38
2023-03-26T00:49:55.114Z,45.93
2023-03-26T00:52:43.930Z,46.64
2023-03-26T00:56:01.677Z,47.45
2023-03-26T00:58:50.166Z,46.17
2023-03-26T01:01:59.150Z,48.25
2023-03-26T01:04:57.705Z,46.59
2023-03-26T01:07:50.425Z,46.42
2023-03-26T01:10:41.145Z,46.36
2023-03-26T01:13:27.173Z,46.69
2023-03-26T01:16:27.280Z,47.23
2023-03-26T01:19:44.831Z,48.30
2023-03-26T01:22:30.709Z,47.05
2023-03-26T01:25:17.156Z,47.05
2023-03-26T01:28:06.050Z,46.85
2023-03-26T01:31:01.458Z,47.31
2023-03-26T01:33:54.987Z,46.89
2023-03-26T01:36:55.913Z,47.28
2023-03-26T01:40:07.076Z,48.44
2023-03-26T01:43:32.310Z,47.48
2023-03-26T01:46:19.529Z,47.13
2023-03-26T01:49:12.986Z,47.25
2023-03-26T01:51:59.417Z,47.24
2023-03-26T01:54:46.735Z,47.20
2023-03-26T01:57:47.495Z,47.49
2023-03-26T02:00:37.696Z,47.19
2023-03-26T02:03:34.394Z,47.88
2023-03-26T02:06:25.865Z,47.53
2023-03-26T02:09:16.141Z,47.79
2023-03-26T02:12:03.911Z,47.66
2023-03-26T02:14:50.004Z,47.03
2023-03-26T02:17:40.402Z,47.43
2023-03-26T02:20:30.150Z,47.89
2023-03-26T02:23:15.835Z,48.21
2023-03-26T02:26:10.420Z,48.58
2023-03-26T02:29:08.731Z,47.67
2023-03-26T02:31:56.406Z,47.74
2023-03-26T02:34:42.986Z,47.76
2023-03-26T02:37:30.473Z,47.98
2023-03-26T02:40:25.185Z,47.81
2023-03-26T02:43:11.296Z,48.37
2023-03-26T02:45:58.578Z,48.08
2023-03-26T02:49:05.505Z,48.29
2023-03-26T02:51:56.193Z,47.96
2023-03-26T02:54:45.664Z,48.61
2023-03-26T02:57:41.634Z,48.35
2023-03-26T03:00:36.560Z,48.07
2023-03-26T03:03:49.357Z,48.27
2023-03-26T03:06:57.697Z,48.51
2023-03-26T03:09:46.448Z,48.40
2023-03-26T03:12:53.102Z,48.63
2023-03-26T03:15:39.188Z,48.08
2023-03-26T03:18:25.161Z,48.64
2023-03-26T03:21:11.077Z,48.21
2023-03-26T03:23:59.797Z,48.76
2023-03-26T03:26:56.891Z,48.89
2023-03-26T03:29:55.880Z,48.82
2023-03-26T03:33:02.477Z,48.81
2023-03-26T03:35:50.389Z,49.00
2023-03-26T03:38:38.404Z,48.95
2023-03-26T03:41:24.690Z,49.17
2023-03-26T03:44:10.451Z,49.17
2023-03-26T03:46:57.077Z,48.89
2023-03-26T03:49:42.983Z,49.24
2023-03-26T03:52:29.176Z,48.43
2023-03-26T03:55:15.541Z,48.94
2023-03-26T03:58:09.430Z,49.28
2023-03-26T04:01:00.950Z,49.14
2023-03-26T04:04:19.226Z,48.94
2023-03-26T04:07:17.382Z,48.57
2023-03-26T04:10:21.411Z,51.37
2023-03-26T04:13:25.791Z,49.09
2023-03-26T04:16:33.730Z,48.95
2023-03-26T04:19:19.934Z,48.86
2023-03-26T04:22:06.533Z,49.09
2023-03-26T04:24:58.407Z,48.66
2023-03-26T04:27:50.663Z,48.84
2023-03-26T04:31:00.945Z,49.33
2023-03-26T04:34:09.794Z,49.25
2023-03-26T04:37:03.541Z,49.37
2023-03-26T04:39:54.462Z,49.09
2023-03-26T04:42:58.410Z,49.32
2023-03-26T04:46:04.564Z,48.76
2023-03-26T04:48:56.887Z,48.70
2023-03-26T04:51:46.238Z,49.28
2023-03-26T04:54:52.082Z,49.21
2023-03-26T04:57:46.181Z,49.41
2023-03-26T05:00:57.905Z,49.19
2023-03-26T05:03:45.962Z,49.52
2023-03-26T05:06:34.490Z,49.51
2023-03-26T05:09:26.781Z,49.74
2023-03-26T05:12:45.013Z,49.58
2023-03-26T05:15:41.389Z,49.14
2023-03-26T05:18:32.420Z,49.92
2023-03-26T05:21:19.827Z,49.69
2023-03-26T05:24:06.460Z,50.00
2023-03-26T05:26:52.268Z,49.54
2023-03-26T05:29:41.967Z,49.90
2023-03-26T05:32:28.279Z,49.66
2023-03-26T05:35:16.986Z,49.85
2023-03-26T05:38:03.090Z,50.05
2023-03-26T05:40:48.754Z,49.77
2023-03-26T05:43:38.001Z,50.08
2023-03-26T05:46:30.613Z,49.69
2023-03-26T05:49:18.187Z,49.70
2023-03-26T05:52:03.916Z,50.25
2023-03-26T05:55:09.601Z,49.57
2023-03-26T05:58:32.941Z,49.68
2023-03-26T06:01:38.636Z,49.73
2023-03-26T06:04:57.236Z,50.15
2023-03-26T06:08:01.324Z,49.65
2023-03-26T06:11:12.745Z,50.89
2023-03-26T06:13:58.968Z,50.40
2023-03-26T06:16:45.358Z,50.39
2023-03-26T06:19:36.920Z,49.76
2023-03-26T06:22:42.053Z,49.61
2023-03-26T06:25:51.344Z,50.43
2023-03-26T06:28:56.126Z,49.98
2023-03-26T06:32:12.503Z,50.04
2023-03-26T06:35:19.273Z,49.45
2023-03-26T06:38:05.336Z,50.03
2023-03-26T06:40:54.374Z,49.94
2023-03-26T06:43:46.454Z,50.13
2023-03-26T06:46:55.550Z,50.01
2023-03-26T06:50:00.239Z,49.74
2023-03-26T06:53:06.466Z,49.60
2023-03-26T06:56:03.319Z,49.53
2023-03-26T06:59:18.772Z,49.92
2023-03-26T07:02:24.552Z,49.78
2023-03-26T07:05:42.712Z,49.60
2023-03-26T07:08:47.913Z,49.51
2023-03-26T07:12:02.711Z,49.67
2023-03-26T07:15:20.654Z,49.56
2023-03-26T07:18:25.813Z,49.46
2023-03-26T07:21:12.925Z,49.35
2023-03-26T07:24:02.023Z,49.25
2023-03-26T07:27:17.087Z,48.81
2023-03-26T07:30:20.445Z,48.90
2023-03-26T07:34:02.443Z,49.04
2023-03-26T07:37:52.842Z,49.43
2023-03-26T07:40:38.962Z,49.10
2023-03-26T07:44:09.509Z,49.01
2023-03-26T07:46:57.244Z,48.54
2023-03-26T07:49:57.944Z,48.65
2023-03-26T07:53:04.317Z,48.55
2023-03-26T07:56:18.024Z,48.23
2023-03-26T07:59:46.047Z,48.14
2023-03-26T08:03:22.073Z,47.56
2023-03-26T08:06:26.347Z,47.29
2023-03-26T08:09:27.744Z,47.12
2023-03-26T08:13:04.749Z,46.63
2023-03-26T08:16:12.098Z,46.35
2023-03-26T08:19:19.954Z,46.17
2023-03-26T08:22:13.767Z,45.52
2023-03-26T08:25:02.595Z,42.91
2023-03-26T08:28:02.455Z,45.47
2023-03-26T08:30:48.689Z,45.42
2023-03-26T08:33:38.394Z,44.95
2023-03-26T08:36:24.209Z,45.22
2023-03-26T08:39:10.099Z,45.18
2023-03-26T08:42:11.373Z,44.82
2023-03-26T08:45:23.199Z,44.32
2023-03-26T08:48:21.236Z,44.44
2023-03-26T08:51:35.042Z,42.85
2023-03-26T08:54:42.269Z,41.52
2023-03-26T08:57:41.219Z,41.15
2023-03-26T09:00:48.880Z,43.04
2023-03-26T09:03:59.166Z,41.26
2023-03-26T09:06:45.415Z,42.24
2023-03-26T09:09:50.390Z,41.87
2023-03-26T09:12:57.513Z,34.46
2023-03-26T09:16:31.771Z,38.60
2023-03-26T09:19:55.258Z,40.36
2023-03-26T09:23:03.028Z,41.20
2023-03-26T09:26:08.992Z,39.62
2023-03-26T09:29:09.100Z,40.39
2023-03-26T09:32:32.482Z,39.84
2023-03-26T09:36:01.910Z,38.62
2023-03-26T09:39:04.174Z,39.70
2023-03-26T09:42:19.292Z,40.07
2023-03-26T09:45:16.830Z,39.85
2023-03-26T09:48:20.990Z,39.22
2023-03-26T09:51:41.615Z,37.39
2023-03-26T09:54:46.531Z,37.85
2023-03-26T09:57:41.535Z,39.20
2023-03-26T10:00:28.575Z,38.58
2023-03-26T10:03:17.795Z,38.33
2023-03-26T10:06:31.772Z,37.71
2023-03-26T10:09:23.043Z,37.84
2023-03-26T10:12:24.400Z,36.80
2023-03-26T10:15:25.388Z,35.23
2023-03-26T10:18:40.026Z,31.91
2023-03-26T10:21:36.034Z,36.79
2023-03-26T10:24:41.050Z,35.23
2023-03-26T10:28:03.529Z,34.54
2023-03-26T10:31:19.698Z,34.87
2023-03-26T10:34:32.985Z,34.63
2023-03-26T10:37:52.549Z,33.81
2023-03-26T10:41:15.211Z,33.72
2023-03-26T10:44:27.420Z,34.00
2023-03-26T10:47:47.043Z,33.43
2023-03-26T10:50:53.525Z,34.85
2023-03-26T10:53:51.115Z,34.80
2023-03-26T10:56:49.416Z,33.80
2023-03-26T10:59:35.283Z,34.32
2023-03-26T11:02:29.123Z,34.12
2023-03-26T11:05:39.902Z,32.74
2023-03-26T11:08:31.636Z,33.89
2023-03-26T11:11:42.256Z,32.60
2023-03-26T11:14:35.361Z,33.29
2023-03-26T11:17:41.186Z,32.85
2023-03-26T11:21:18.044Z,29.81
2023-03-26T11:24:26.131Z,30.65
2023-03-26T11:27:49.553Z,25.86
2023-03-26T11:30:41.454Z,29.68
2023-03-26T11:33:32.602Z,29.23
2023-03-26T11:36:26.312Z,28.09
2023-03-26T11:39:15.685Z,28.37
2023-03-26T11:42:11.256Z,26.88
2023-03-26T11:45:24.353Z,24.99
2023-03-26T11:48:32.030Z,21.79
2023-03-26T11:51:36.790Z,23.44
2023-03-26T11:54:22.847Z,25.73
2023-03-26T11:57:16.878Z,25.59
2023-03-26T12:00:16.608Z,25.58
2023-03-26T12:03:02.288Z,25.15
2023-03-26T12:05:59.080Z,25.38
2023-03-26T12:08:45.055Z,25.57
2023-03-26T12:11:35.839Z,25.31
2023-03-26T12:14:25.337Z,24.69
2023-03-26T12:17:31.359Z,22.77
2023-03-26T12:20:24.937Z,23.49
2023-03-26T12:23:35.079Z,22.16
2023-03-26T12:26:37.025Z,21.10
2023-03-26T12:29:23.305Z,22.58
2023-03-26T12:32:16.005Z,22.29
2023-03-26T12:35:07.547Z,21.47
2023-03-26T12:37:55.894Z,21.67
2023-03-26T12:40:43.194Z,21.68
2023-03-26T12:44:49.799Z,21.13
2023-03-26T12:47:57.366Z,21.92
2023-03-26T12:49:55.347Z,22.37
2023-03-26T12:53:09.067Z,21.80
2023-03-26T12:56:01.666Z,22.22
2023-03-26T12:59:06.727Z,21.23
2023-03-26T13:02:06.827Z,22.62
2023-03-26T13:05:09.764Z,21.63
2023-03-26T13:07:58.392Z,22.76
2023-03-26T13:11:05.869Z,21.40
2023-03-26T13:14:03.130Z,20.98
2023-03-26T13:17:04.965Z,22.92
2023-03-26T13:19:54.009Z,22.02
2023-03-26T13:23:02.148Z,21.42
2023-03-26T13:26:33.030Z,20.36
2023-03-26T13:29:36.637Z,21.00
2023-03-26T13:32:43.091Z,21.06
2023-03-26T13:35:39.296Z,20.57
2023-03-26T13:38:37.716Z,20.32
2023-03-26T13:41:32.304Z,21.17
2023-03-26T13:44:43.504Z,19.88
2023-03-26T13:47:31.626Z,19.88
2023-03-26T13:50:31.011Z,17.87
2023-03-26T13:53:22.299Z,18.30
2023-03-26T13:56:12.130Z,18.17
2023-03-26T13:59:02.228Z,18.35
2023-03-26T14:01:57.444Z,17.48
2023-03-26T14:04:48.602Z,17.80
2023-03-26T14:07:39.319Z,17.72
2023-03-26T14:10:28.947Z,17.33
2023-03-26T14:13:36.579Z,15.05
2023-03-26T14:16:42.446Z,16.35
2023-03-26T14:19:41.772Z,16.49
2023-03-26T14:22:30.620Z,16.52
2023-03-26T14:25:56.583Z,15.10
2023-03-26T14:28:57.845Z,15.72
2023-03-26T14:31:53.910Z,16.18
2023-03-26T14:34:55.807Z,15.06
2023-03-26T14:38:21.200Z,14.28
2023-03-26T14:41:24.741Z,16.33
2023-03-26T14:44:27.852Z,15.88
2023-03-26T14:47:22.801Z,16.73
2023-03-26T14:50:50.501Z,16.04
2023-03-26T14:53:51.670Z,15.88
2023-03-26T14:57:05.187Z,16.27
2023-03-26T15:00:15.793Z,17.96
2023-03-26T15:03:17.416Z,17.82
2023-03-26T15:06:34.245Z,17.91
2023-03-26T15:09:42.679Z,18.10
2023-03-26T15:13:10.183Z,17.37
2023-03-26T15:16:09.389Z,19.08
2023-03-26T15:19:31.701Z,18.97
2023-03-26T15:22:54.117Z,19.17
2023-03-26T15:26:04.487Z,19.40
2023-03-26T15:29:05.020Z,19.58
2023-03-26T15:32:09.034Z,19.89
2023-03-26T15:35:06.058Z,20.24
2023-03-26T15:38:24.406Z,20.24
2023-03-26T15:41:47.530Z,20.59
2023-03-26T15:44:54.396Z,20.92
2023-03-26T15:47:50.012Z,20.92
2023-03-26T15:51:02.302Z,20.87
2023-03-26T15:54:20.719Z,21.17
2023-03-26T15:57:39.237Z,21.14
2023-03-26T16:00:29.130Z,21.30
2023-03-26T16:03:25.599Z,21.73
2023-03-26T16:06:15.882Z,21.76
2023-03-26T16:09:29.037Z,21.75
2023-03-26T16:12:17.902Z,21.75
2023-03-26T16:15:25.175Z,21.87
2023-03-26T16:18:12.446Z,21.95
2023-03-26T16:21:31.390Z,21.92
2023-03-26T16:24:25.051Z,22.08
2023-03-26T16:27:34.327Z,22.04
2023-03-26T16:30:30.907Z,22.30
2023-03-26T16:33:21.291Z,22.31
2023-03-26T16:36:34.805Z,22.49
2023-03-26T16:39:39.244Z,22.52
2023-03-26T16:42:25.010Z,22.47
2023-03-26T16:45:50.029Z,22.58
2023-03-26T16:48:50.083Z,22.79
2023-03-26T16:51:55.686Z,23.08
2023-03-26T16:54:50.796Z,23.08
2023-03-26T16:57:43.934Z,23.14
2023-03-26T17:01:03.995Z,23.56
2023-03-26T17:04:00.847Z,23.49
2023-03-26T17:07:01.906Z,23.79
2023-03-26T17:10:14.585Z,23.65
2023-03-26T17:13:12.071Z,23.64
2023-03-26T17:16:26.475Z,23.96
2023-03-26T17:19:15.638Z,23.78
2023-03-26T17:22:21.583Z,24.06
2023-03-26T17:25:36.950Z,24.30
2023-03-26T17:28:37.855Z,24.09
2023-03-26T17:31:36.405Z,24.26
2023-03-26T17:35:03.680Z,24.77
2023-03-26T17:37:49.835Z,24.49
2023-03-26T17:40:48.096Z,25.02
2023-03-26T17:43:44.142Z,24.59
2023-03-26T17:46:50.271Z,25.09
2023-03-26T17:49:37.537Z,24.75
2023-03-26T17:52:36.390Z,24.96
2023-03-26T17:55:27.851Z,24.89
2023-03-26T17:58:44.710Z,25.36
2023-03-26T18:01:42.879Z,25.43
2023-03-26T18:04:35.726Z,25.37
2023-03-26T18:07:49.740Z,25.74
2023-03-26T18:10:41.363Z,25.44
2023-03-26T18:14:09.308Z,26.17
2023-03-26T18:17:00.102Z,25.70
2023-03-26T18:19:56.129Z,25.86
2023-03-26T18:22:44.822Z,26.08
2023-03-26T18:25:33.922Z,26.10
2023-03-26T18:28:29.492Z,26.16
2023-03-26T18:31:26.489Z,26.64
2023-03-26T18:34:18.556Z,26.30
2023-03-26T18:37:21.128Z,26.54
2023-03-26T18:40:19.243Z,26.15
2023-03-26T18:43:06.319Z,26.32
2023-03-26T18:45:53.559Z,26.65
2023-03-26T18:48:39.718Z,26.54
2023-03-26T18:51:26.585Z,26.69
2023-03-26T18:54:19.906Z,26.82
2023-03-26T18:57:15.493Z,26.76
2023-03-26T19:00:18.655Z,27.06
2023-03-26T19:03:07.025Z,26.98
2023-03-26T19:05:56.715Z,27.12
2023-03-26T19:08:44.865Z,27.01
2023-03-26T19:11:31.042Z,27.16
2023-03-26T19:14:19.421Z,26.98
2023-03-26T19:17:07.067Z,27.18
2023-03-26T19:19:54.964Z,27.29
2023-03-26T19:22:46.276Z,27.50
2023-03-26T19:25:39.314Z,27.79
2023-03-26T19:28:33.729Z,27.53
2023-03-26T19:31:23.817Z,28.31
2023-03-26T19:34:13.910Z,27.56
2023-03-26T19:37:01.938Z,27.89
2023-03-26T19:39:51.395Z,28.04
2023-03-26T19:42:43.766Z,27.87
2023-03-26T19:45:34.264Z,28.01
2023-03-26T19:48:45.331Z,27.98
2023-03-26T19:51:34.241Z,28.10
2023-03-26T19:54:20.468Z,28.21
2023-03-26T19:57:06.344Z,28.20
2023-03-26T19:59:52.282Z,27.85
2023-03-26T20:02:38.282Z,27.96
2023-03-26T20:05:27.502Z,28.26
2023-03-26T20:08:15.403Z,28.14
2023-03-26T20:11:01.443Z,28.10
2023-03-26T20:13:48.459Z,28.31
2023-03-26T20:16:35.310Z,28.33
2023-03-26T20:19:21.104Z,28.38
2023-03-26T20:22:12.505Z,28.78
2023-03-26T20:24:58.328Z,28.81
2023-03-26T20:27:55.283Z,28.88
2023-03-26T20:30:41.658Z,28.70
2023-03-26T20:33:28.000Z,28.72
2023-03-26T20:36:14.664Z,28.66
2023-03-26T20:39:22.362Z,28.62
2023-03-26T20:42:10.071Z,28.65
2023-03-26T20:44:56.754Z,28.85
2023-03-26T20:47:45.359Z,29.05
2023-03-26T20:50:35.691Z,28.93
2023-03-26T20:53:21.721Z,28.94
2023-03-26T20:56:17.775Z,29.46
2023-03-26T20:59:10.927Z,29.15
2023-03-26T21:01:58.168Z,28.84
2023-03-26T21:04:45.153Z,28.79
2023-03-26T21:07:31.336Z,28.83
2023-03-26T21:10:19.395Z,29.12
2023-03-26T21:13:32.681Z,28.99
2023-03-26T21:16:18.948Z,28.94
2023-03-26T21:19:05.709Z,29.20
2023-03-26T21:22:09.205Z,29.34
2023-03-26T21:25:17.288Z,29.28
2023-03-26T21:28:32.269Z,29.06
2023-03-26T21:31:31.124Z,28.92
2023-03-26T21:34:17.190Z,28.81
2023-03-26T21:37:03.658Z,28.96
2023-03-26T21:39:49.512Z,28.88
2023-03-26T21:42:36.202Z,28.80
2023-03-26T21:45:22.992Z,28.54
2023-03-26T21:48:10.504Z,28.60
2023-03-26T21:51:02.554Z,28.55
2023-03-26T21:53:49.003Z,28.79
2023-03-26T21:56:46.808Z,28.98
2023-03-26T21:59:39.753Z,28.80
2023-03-26T22:02:45.664Z,29.60
2023-03-26T22:05:42.037Z,29.02
2023-03-26T22:08:39.968Z,28.64
2023-03-26T22:11:26.121Z,29.01
2023-03-26T22:14:13.476Z,29.01
2023-03-26T22:16:59.222Z,29.16
2023-03-26T22:19:44.859Z,29.02
2023-03-26T22:22:30.890Z,29.51
2023-03-26T22:25:20.949Z,29.33
2023-03-26T22:28:07.103Z,29.57
2023-03-26T22:30:53.303Z,29.15
2023-03-26T22:33:43.014Z,29.86
2023-03-26T22:36:28.987Z,29.47
2023-03-26T22:39:14.778Z,29.52
2023-03-26T22:42:02.678Z,29.50
2023-03-26T22:44:48.576Z,29.62
2023-03-26T22:47:35.466Z,29.53
2023-03-26T22:50:21.982Z,29.60
2023-03-26T22:53:08.498Z,29.71
2023-03-26T22:55:54.287Z,29.59
2023-03-26T22:58:40.540Z,29.52
2023-03-26T23:01:26.487Z,29.56
2023-03-26T23:04:12.346Z,29.65
2023-03-26T23:07:17.202Z,29.62
2023-03-26T23:10:03.498Z,29.88
2023-03-26T23:12:49.851Z,29.80
2023-03-26T23:15:35.442Z,29.92
2023-03-26T23:18:22.515Z,30.12
2023-03-26T23:21:14.603Z,29.97
2023-03-26T23:24:00.493Z,29.98
2023-03-26T23:29:35.683Z,30.10
2023-03-26T23:32:25.207Z,29.76
2023-03-26T23:35:11.368Z,29.72
2023-03-26T23:37:57.102Z,29.83
2023-03-26T23:40:44.378Z,30.00
2023-03-26T23:43:54.137Z,30.18
2023-03-26T23:46:44.222Z,30.26
2023-03-26T23:49:30.135Z,30.35
2023-03-26T23:52:16.730Z,30.08
2023-03-26T23:55:02.721Z,30.26
2023-03-26T23:57:48.712Z,30.43
